Indian Creek, Florida
Current Conditions -  °F | °C
As of 10:53 AM on Tuesday 21 Oct 2014 (Local Time) from KOPF Reporting Station
Few Clouds Few Clouds  
Wind Chill: 80°   Ceiling: Unl
Heat Index: 84°   Visibility: 10mi
Dew Point: 73°   Wind: 8mph
Humidity: 79%   Direction: 180°S
Pressure: 29.98"   Gusts: NA
Location:  25.882°N, 80.1292°W
Report Text: KOPF 211453Z 18007KT 10SM FEW070 27/23 A2998 RMK AO2 SLP152 60002 T02670228 51012
Loading
Personal Weather Stations






























Interactive Weather Map
Tropical Storm Tracking
New forecast layout! Learn more

10-Day Weather Forecast

Advertisements
Track Severe Weather on mobile